createdAt,value
2022-08-26T00:00:39.166Z,90.72
2022-08-26T00:01:39.167Z,90.72
2022-08-26T00:02:39.261Z,90.52
2022-08-26T00:03:39.172Z,91.12
2022-08-26T00:04:39.127Z,90.72
2022-08-26T00:05:39.115Z,91.22
2022-08-26T00:06:39.094Z,90.92
2022-08-26T00:07:39.076Z,90.92
2022-08-26T00:08:39.066Z,90.96
2022-08-26T00:09:40.268Z,90.92
2022-08-26T00:10:39.037Z,91.16
2022-08-26T00:11:39.037Z,90.62
2022-08-26T00:12:39.007Z,90.86
2022-08-26T00:13:39.004Z,91.06
2022-08-26T00:14:38.996Z,90.86
2022-08-26T00:15:38.976Z,91.27
2022-08-26T00:16:41.060Z,91.06
2022-08-26T00:17:40.213Z,91.47
2022-08-26T00:18:40.812Z,91.36
2022-08-26T00:19:38.965Z,91.47
2022-08-26T00:20:38.922Z,91.47
2022-08-26T00:21:38.898Z,91.36
2022-08-26T00:22:38.896Z,91.47
2022-08-26T00:23:38.890Z,91.42
2022-08-26T00:24:38.880Z,91.22
2022-08-26T00:25:38.857Z,91.22
2022-08-26T00:26:38.852Z,91.32
2022-08-26T00:27:38.818Z,90.92
2022-08-26T00:28:38.821Z,91.32
2022-08-26T00:29:38.808Z,91.12
2022-08-26T00:30:38.786Z,91.02
2022-08-26T00:31:38.952Z,91.22
2022-08-26T00:32:38.748Z,91.12
2022-08-26T00:33:38.737Z,91.02
2022-08-26T00:34:38.727Z,90.82
2022-08-26T00:35:38.718Z,90.92
2022-08-26T00:36:39.709Z,91.02
2022-08-26T00:37:38.688Z,91.12
2022-08-26T00:38:38.668Z,90.62
2022-08-26T00:39:38.670Z,91.02
2022-08-26T00:40:38.637Z,91.12
2022-08-26T00:41:38.636Z,91.12
2022-08-26T00:42:38.616Z,91.22
2022-08-26T00:43:47.687Z,91.32
2022-08-26T00:44:39.610Z,91.02
2022-08-26T00:45:38.605Z,90.92
2022-08-26T00:46:38.566Z,91.42
2022-08-26T00:47:39.578Z,91.27
2022-08-26T00:48:38.538Z,91.36
2022-08-26T00:49:38.549Z,91.27
2022-08-26T00:50:38.508Z,91.16
2022-08-26T00:51:38.509Z,91.16
2022-08-26T00:52:38.480Z,91.47
2022-08-26T00:53:38.479Z,91.77
2022-08-26T00:54:38.479Z,91.16
2022-08-26T00:55:38.468Z,91.66
2022-08-26T00:56:38.447Z,91.71
2022-08-26T00:57:38.439Z,92.31
2022-08-26T00:58:38.446Z,92.81
2022-08-26T00:59:38.915Z,92.91
2022-08-26T01:00:38.446Z,92.61
2022-08-26T01:01:38.378Z,92.81
2022-08-26T01:02:38.373Z,92.71
2022-08-26T01:03:38.350Z,93.11
2022-08-26T01:04:38.330Z,93.21
2022-08-26T01:05:38.339Z,93.51
2022-08-26T01:06:38.310Z,93.71
2022-08-26T01:07:38.299Z,93.11
2022-08-26T01:08:38.289Z,93.01
2022-08-26T01:09:38.270Z,93.62
2022-08-26T01:10:38.270Z,93.81
2022-08-26T01:11:38.241Z,93.81
2022-08-26T01:12:40.143Z,93.81
2022-08-26T01:13:38.221Z,93.71
2022-08-26T01:14:38.199Z,93.51
2022-08-26T01:15:38.209Z,93.36
2022-08-26T01:16:38.256Z,93.46
2022-08-26T01:17:38.171Z,93.26
2022-08-26T01:18:38.148Z,93.55
2022-08-26T01:19:38.130Z,93.96
2022-08-26T01:20:38.139Z,94.26
2022-08-26T01:21:40.566Z,94.26
2022-08-26T01:22:38.090Z,94.26
2022-08-26T01:23:38.081Z,93.96
2022-08-26T01:24:38.070Z,93.66
2022-08-26T01:25:38.070Z,93.66
2022-08-26T01:26:38.052Z,93.66
2022-08-26T01:27:38.028Z,93.90
2022-08-26T01:28:38.011Z,93.70
2022-08-26T01:29:38.001Z,93.90
2022-08-26T01:30:38.001Z,93.80
2022-08-26T01:31:37.987Z,93.60
2022-08-26T01:32:38.896Z,93.70
2022-08-26T01:33:39.998Z,93.80
2022-08-26T01:34:37.946Z,93.90
2022-08-26T01:35:37.930Z,94.75
2022-08-26T01:36:37.910Z,94.45
2022-08-26T01:37:38.971Z,94.25
2022-08-26T01:38:37.880Z,94.55
2022-08-26T01:39:37.869Z,95.15
2022-08-26T01:40:37.870Z,95.55
2022-08-26T01:41:37.840Z,95.36
2022-08-26T01:42:37.841Z,95.50
2022-08-26T01:43:37.810Z,95.50
2022-08-26T01:44:37.801Z,95.50
2022-08-26T01:45:37.841Z,95.30
2022-08-26T01:46:37.780Z,95.30
2022-08-26T01:47:37.761Z,95.50
2022-08-26T01:48:37.750Z,95.40
2022-08-26T01:49:37.730Z,96.00
2022-08-26T01:50:37.741Z,95.95
2022-08-26T01:51:37.718Z,96.04
2022-08-26T01:52:37.700Z,96.35
2022-08-26T01:53:37.680Z,96.25
2022-08-26T01:54:37.671Z,96.25
2022-08-26T01:55:37.688Z,96.25
2022-08-26T01:56:37.650Z,96.25
2022-08-26T01:57:37.629Z,96.25
2022-08-26T01:58:37.611Z,95.95
2022-08-26T01:59:37.592Z,96.75
2022-08-26T02:00:37.628Z,96.95
2022-08-26T02:01:37.571Z,96.75
2022-08-26T02:02:37.562Z,96.65
2022-08-26T02:03:38.736Z,96.65
2022-08-26T02:04:37.633Z,97.15
2022-08-26T02:05:37.531Z,98.05
2022-08-26T02:06:37.509Z,98.16
2022-08-26T02:07:37.491Z,98.36
2022-08-26T02:08:37.480Z,99.06
2022-08-26T02:09:41.361Z,98.96
2022-08-26T02:10:37.475Z,98.86
2022-08-26T02:11:37.442Z,98.66
2022-08-26T02:12:37.432Z,98.56
2022-08-26T02:13:37.401Z,98.51
2022-08-26T02:14:43.759Z,98.31
2022-08-26T02:15:38.411Z,98.31
2022-08-26T02:16:37.447Z,98.01
2022-08-26T02:17:37.431Z,97.91
2022-08-26T02:18:37.351Z,97.61
2022-08-26T02:19:37.321Z,97.31
2022-08-26T02:20:37.342Z,97.41
2022-08-26T02:21:37.311Z,97.20
2022-08-26T02:22:37.310Z,97.00
2022-08-26T02:23:37.280Z,96.80
2022-08-26T02:24:37.273Z,96.75
2022-08-26T02:25:37.272Z,96.65
2022-08-26T02:26:37.240Z,96.35
2022-08-26T02:27:37.231Z,96.45
2022-08-26T02:28:37.210Z,96.45
2022-08-26T02:29:37.200Z,96.45
2022-08-26T02:30:37.233Z,96.55
2022-08-26T02:31:37.206Z,96.65
2022-08-26T02:32:38.315Z,97.05
2022-08-26T02:33:37.143Z,97.20
2022-08-26T02:34:38.142Z,97.50
2022-08-26T02:35:37.131Z,98.40
2022-08-26T02:36:37.101Z,98.50
2022-08-26T02:37:37.092Z,98.20
2022-08-26T02:38:37.071Z,98.40
2022-08-26T02:39:37.061Z,98.71
2022-08-26T02:40:37.071Z,98.71
2022-08-26T02:41:44.981Z,98.60
2022-08-26T02:42:38.035Z,98.71
2022-08-26T02:43:37.011Z,98.80
2022-08-26T02:44:37.002Z,98.71
2022-08-26T02:45:36.993Z,98.91
2022-08-26T02:46:36.997Z,98.80
2022-08-26T02:47:37.004Z,98.91
2022-08-26T02:48:36.957Z,98.60
2022-08-26T02:49:36.922Z,98.50
2022-08-26T02:50:36.939Z,98.50
2022-08-26T02:51:36.898Z,98.30
2022-08-26T02:52:36.934Z,98.20
2022-08-26T02:53:36.901Z,98.20
2022-08-26T02:54:36.870Z,98.30
2022-08-26T02:55:36.874Z,98.40
2022-08-26T02:56:36.842Z,98.91
2022-08-26T02:57:36.863Z,99.11
2022-08-26T02:58:36.823Z,99.01
2022-08-26T02:59:36.792Z,99.01
2022-08-26T03:00:36.869Z,99.31
2022-08-26T03:01:36.815Z,99.71
2022-08-26T03:02:36.763Z,99.51
2022-08-26T03:03:36.742Z,99.61
2022-08-26T03:04:36.738Z,99.41
2022-08-26T03:05:36.721Z,99.81
2022-08-26T03:06:36.722Z,99.71
2022-08-26T03:07:36.682Z,99.81
2022-08-26T03:08:36.676Z,99.61
2022-08-26T03:09:36.663Z,99.51
2022-08-26T03:10:36.663Z,99.41
2022-08-26T03:11:36.656Z,99.46
2022-08-26T03:12:36.640Z,99.46
2022-08-26T03:13:36.602Z,99.76
2022-08-26T03:14:36.602Z,99.66
2022-08-26T03:15:36.603Z,99.35
2022-08-26T03:16:36.597Z,99.15
2022-08-26T03:17:36.554Z,99.26
2022-08-26T03:18:36.544Z,99.55
2022-08-26T03:19:36.522Z,99.99
2022-08-26T03:20:36.532Z,99.96
2022-08-26T03:21:36.510Z,99.99
2022-08-26T03:22:36.494Z,99.99
2022-08-26T03:23:36.472Z,99.96
2022-08-26T03:24:36.522Z,99.99
2022-08-26T03:25:36.463Z,99.99
2022-08-26T03:26:36.441Z,99.99
2022-08-26T03:27:36.422Z,99.99
2022-08-26T03:28:36.419Z,99.99
2022-08-26T03:29:36.420Z,99.99
2022-08-26T03:30:36.403Z,99.99
2022-08-26T03:31:36.440Z,99.99
2022-08-26T03:32:36.371Z,99.99
2022-08-26T03:33:36.343Z,99.99
2022-08-26T03:34:36.322Z,99.99
2022-08-26T03:35:36.332Z,99.99
2022-08-26T03:36:36.304Z,99.99
2022-08-26T03:37:36.293Z,99.99
2022-08-26T03:38:36.273Z,99.99
2022-08-26T03:39:36.263Z,99.99
2022-08-26T03:40:36.283Z,99.99
2022-08-26T03:41:36.242Z,99.99
2022-08-26T03:42:36.222Z,99.99
2022-08-26T03:43:36.203Z,99.99
2022-08-26T03:44:36.201Z,99.99
2022-08-26T03:45:36.193Z,99.99
2022-08-26T03:46:36.261Z,99.99
2022-08-26T03:47:36.153Z,99.99
2022-08-26T03:48:36.153Z,99.99
2022-08-26T03:49:36.145Z,99.99
2022-08-26T03:50:36.133Z,99.99
2022-08-26T03:51:38.927Z,99.99
2022-08-26T03:52:37.367Z,99.99
2022-08-26T03:53:37.073Z,99.99
2022-08-26T03:54:36.063Z,99.99
2022-08-26T03:55:36.090Z,99.99
2022-08-26T03:56:36.041Z,99.99
2022-08-26T03:57:36.016Z,99.99
2022-08-26T03:58:36.013Z,99.99
2022-08-26T03:59:36.001Z,99.99
2022-08-26T04:00:36.005Z,99.99
2022-08-26T04:01:36.022Z,99.99
2022-08-26T04:02:36.012Z,99.99
2022-08-26T04:03:35.942Z,99.99
2022-08-26T04:04:35.923Z,99.99
2022-08-26T04:05:35.933Z,99.99
2022-08-26T04:06:35.903Z,99.99
2022-08-26T04:07:35.891Z,99.99
2022-08-26T04:08:35.882Z,99.99
2022-08-26T04:09:35.873Z,99.99
2022-08-26T04:10:35.873Z,99.99
2022-08-26T04:11:35.864Z,99.99
2022-08-26T04:12:35.822Z,99.99
2022-08-26T04:13:35.807Z,99.99
2022-08-26T04:14:35.792Z,99.99
2022-08-26T04:15:36.076Z,99.99
2022-08-26T04:16:35.832Z,99.99
2022-08-26T04:17:35.753Z,99.99
2022-08-26T04:18:37.224Z,99.99
2022-08-26T04:19:35.783Z,99.99
2022-08-26T04:20:35.723Z,99.99
2022-08-26T04:21:35.704Z,99.99
2022-08-26T04:22:35.683Z,99.99
2022-08-26T04:23:47.844Z,99.99
2022-08-26T04:24:36.674Z,99.99
2022-08-26T04:25:35.674Z,99.99
2022-08-26T04:26:35.634Z,99.99
2022-08-26T04:27:35.622Z,99.99
2022-08-26T04:28:35.604Z,99.99
2022-08-26T04:29:35.603Z,99.99
2022-08-26T04:30:35.593Z,99.99
2022-08-26T04:31:35.603Z,99.99
2022-08-26T04:32:35.553Z,99.99
2022-08-26T04:33:35.556Z,99.99
2022-08-26T04:34:36.543Z,99.99
2022-08-26T04:35:35.561Z,99.99
2022-08-26T04:36:35.493Z,99.99
2022-08-26T04:37:35.494Z,99.99
2022-08-26T04:38:35.494Z,99.99
2022-08-26T04:39:35.484Z,99.99
2022-08-26T04:40:35.463Z,99.99
2022-08-26T04:41:35.435Z,99.99
2022-08-26T04:42:35.421Z,99.99
2022-08-26T04:43:35.404Z,99.99
2022-08-26T04:44:35.395Z,99.99
2022-08-26T04:45:35.403Z,99.99
2022-08-26T04:46:35.415Z,99.99
2022-08-26T04:47:35.355Z,99.99
2022-08-26T04:48:35.345Z,99.99
2022-08-26T04:49:35.760Z,99.99
2022-08-26T04:50:35.332Z,99.99
2022-08-26T04:51:35.316Z,99.99
2022-08-26T04:52:35.283Z,99.99
2022-08-26T04:53:35.273Z,99.99
2022-08-26T04:54:35.255Z,99.99
2022-08-26T04:55:38.578Z,99.99
2022-08-26T04:56:35.254Z,99.99
2022-08-26T04:57:35.223Z,99.99
2022-08-26T04:58:35.222Z,99.99
2022-08-26T04:59:39.066Z,99.96
2022-08-26T05:00:35.194Z,99.87
2022-08-26T05:01:39.436Z,99.56
2022-08-26T05:02:35.144Z,99.56
2022-08-26T05:03:35.153Z,99.56
2022-08-26T05:04:35.124Z,99.46
2022-08-26T05:05:35.133Z,99.26
2022-08-26T05:06:37.083Z,99.16
2022-08-26T05:07:35.091Z,99.26
2022-08-26T05:08:35.073Z,99.06
2022-08-26T05:09:35.064Z,99.06
2022-08-26T05:10:35.062Z,99.06
2022-08-26T05:11:35.034Z,99.06
2022-08-26T05:12:35.014Z,98.66
2022-08-26T05:13:35.005Z,98.66
2022-08-26T05:14:34.996Z,98.66
2022-08-26T05:15:35.061Z,98.51
2022-08-26T05:16:34.974Z,98.51
2022-08-26T05:17:34.967Z,98.61
2022-08-26T05:18:34.934Z,98.71
2022-08-26T05:19:34.925Z,98.61
2022-08-26T05:20:34.922Z,98.61
2022-08-26T05:21:34.925Z,98.31
2022-08-26T05:22:34.884Z,98.31
2022-08-26T05:23:34.874Z,98.01
2022-08-26T05:24:34.863Z,97.81
2022-08-26T05:25:34.854Z,97.96
2022-08-26T05:26:34.854Z,97.96
2022-08-26T05:27:34.824Z,97.76
2022-08-26T05:28:34.804Z,97.66
2022-08-26T05:29:34.802Z,97.46
2022-08-26T05:30:34.784Z,97.52
2022-08-26T05:31:34.902Z,97.61
2022-08-26T05:32:34.756Z,97.41
2022-08-26T05:33:34.754Z,97.11
2022-08-26T05:34:34.756Z,97.02
2022-08-26T05:35:34.724Z,96.87
2022-08-26T05:36:34.961Z,96.47
2022-08-26T05:37:34.696Z,96.47
2022-08-26T05:38:34.675Z,96.36
2022-08-26T05:39:34.675Z,96.12
2022-08-26T05:40:34.688Z,96.02
2022-08-26T05:41:36.544Z,95.32
2022-08-26T05:42:34.637Z,95.12
2022-08-26T05:43:34.616Z,94.67
2022-08-26T05:44:53.883Z,94.37
2022-08-26T05:45:35.585Z,94.57
2022-08-26T05:46:34.711Z,94.02
2022-08-26T05:47:34.556Z,93.82
2022-08-26T05:48:34.546Z,93.43
2022-08-26T05:49:34.533Z,92.48
2022-08-26T05:50:35.513Z,92.48
2022-08-26T05:51:34.526Z,92.63
2022-08-26T05:52:34.494Z,92.24
2022-08-26T05:53:34.485Z,91.89
2022-08-26T05:54:34.456Z,90.79
2022-08-26T05:55:34.455Z,90.69
2022-08-26T05:56:34.456Z,90.59
2022-08-26T05:57:37.522Z,90.39
2022-08-26T05:58:35.415Z,90.05
2022-08-26T05:59:34.447Z,89.45
2022-08-26T06:00:34.385Z,88.60
2022-08-26T06:01:35.835Z,88.31
2022-08-26T06:02:34.493Z,87.71
2022-08-26T06:03:34.347Z,87.27
2022-08-26T06:04:34.335Z,87.27
2022-08-26T06:05:38.261Z,86.97
2022-08-26T06:06:35.315Z,87.02
2022-08-26T06:07:34.296Z,86.63
2022-08-26T06:08:34.266Z,86.82
2022-08-26T06:09:34.257Z,86.63
2022-08-26T06:10:34.371Z,86.33
2022-08-26T06:11:34.295Z,85.83
2022-08-26T06:12:34.232Z,86.29
2022-08-26T06:13:34.206Z,85.78
2022-08-26T06:14:34.206Z,85.69
2022-08-26T06:15:34.221Z,85.19
2022-08-26T06:16:34.177Z,85.58
2022-08-26T06:17:34.157Z,85.78
2022-08-26T06:18:34.147Z,85.58
2022-08-26T06:19:34.421Z,85.05
2022-08-26T06:20:34.124Z,86.34
2022-08-26T06:21:34.154Z,85.44
2022-08-26T06:22:34.107Z,84.84
2022-08-26T06:23:34.076Z,84.84
2022-08-26T06:24:34.056Z,85.25
2022-08-26T06:25:34.070Z,84.55
2022-08-26T06:26:34.049Z,85.05
2022-08-26T06:27:34.033Z,84.84
2022-08-26T06:28:34.007Z,85.11
2022-08-26T06:29:34.009Z,85.00
2022-08-26T06:30:33.989Z,83.67
2022-08-26T06:31:34.052Z,83.97
2022-08-26T06:32:33.964Z,82.54
2022-08-26T06:33:33.945Z,83.23
2022-08-26T06:34:33.934Z,82.14
2022-08-26T06:35:33.918Z,82.54
2022-08-26T06:36:33.917Z,82.43
2022-08-26T06:37:33.896Z,82.24
2022-08-26T06:38:33.889Z,82.04
2022-08-26T06:39:33.880Z,82.14
2022-08-26T06:40:33.890Z,82.73
2022-08-26T06:41:33.850Z,82.73
2022-08-26T06:42:33.827Z,82.50
2022-08-26T06:43:33.818Z,82.10
2022-08-26T06:44:33.800Z,81.80
2022-08-26T06:45:33.789Z,81.80
2022-08-26T06:46:33.855Z,81.90
2022-08-26T06:47:33.761Z,83.00
2022-08-26T06:48:33.741Z,82.70
2022-08-26T06:49:33.737Z,82.00
2022-08-26T06:50:33.720Z,82.20
2022-08-26T06:51:34.225Z,81.60
2022-08-26T06:52:33.702Z,81.80
2022-08-26T06:53:33.691Z,82.34
2022-08-26T06:54:33.681Z,83.13
2022-08-26T06:55:33.654Z,83.53
2022-08-26T06:56:33.651Z,82.93
2022-08-26T06:57:33.627Z,83.13
2022-08-26T06:58:33.612Z,82.73
2022-08-26T06:59:33.599Z,83.73
2022-08-26T07:00:33.598Z,82.73
2022-08-26T07:01:33.697Z,83.23
2022-08-26T07:02:33.590Z,83.97
2022-08-26T07:03:34.979Z,84.07
2022-08-26T07:04:34.531Z,83.57
2022-08-26T07:05:33.521Z,83.57
2022-08-26T07:06:33.522Z,83.97
2022-08-26T07:07:33.494Z,83.57
2022-08-26T07:08:33.497Z,82.93
2022-08-26T07:09:33.471Z,83.53
2022-08-26T07:10:33.456Z,83.00
2022-08-26T07:11:33.462Z,82.89
2022-08-26T07:12:33.421Z,83.00
2022-08-26T07:13:33.422Z,82.35
2022-08-26T07:14:33.402Z,81.36
2022-08-26T07:15:33.438Z,81.86
2022-08-26T07:16:33.404Z,81.76
2022-08-26T07:17:33.371Z,81.52
2022-08-26T07:18:33.363Z,80.83
2022-08-26T07:19:33.343Z,80.39
2022-08-26T07:20:33.319Z,79.90
2022-08-26T07:21:33.330Z,79.60
2022-08-26T07:22:33.293Z,79.90
2022-08-26T07:23:33.293Z,79.50
2022-08-26T07:24:33.275Z,79.69
2022-08-26T07:25:33.263Z,79.30
2022-08-26T07:26:33.258Z,79.75
2022-08-26T07:27:33.233Z,79.06
2022-08-26T07:28:33.219Z,78.42
2022-08-26T07:29:33.221Z,78.33
2022-08-26T07:30:33.198Z,78.03
2022-08-26T07:31:39.182Z,77.69
2022-08-26T07:32:34.166Z,78.09
2022-08-26T07:33:33.170Z,77.26
2022-08-26T07:34:33.373Z,76.27
2022-08-26T07:35:33.126Z,76.27
2022-08-26T07:36:33.386Z,76.53
2022-08-26T07:37:35.469Z,77.19
2022-08-26T07:38:33.845Z,75.50
2022-08-26T07:39:33.112Z,75.96
2022-08-26T07:40:33.106Z,75.23
2022-08-26T07:41:33.069Z,73.94
2022-08-26T07:42:33.026Z,74.74
2022-08-26T07:43:33.026Z,74.44
2022-08-26T07:44:33.005Z,73.94
2022-08-26T07:45:33.061Z,74.87
2022-08-26T07:46:32.995Z,74.18
2022-08-26T07:47:32.977Z,75.27
2022-08-26T07:48:32.959Z,74.77
2022-08-26T07:49:32.997Z,74.74
2022-08-26T07:50:49.825Z,74.50
2022-08-26T07:51:33.926Z,74.37
2022-08-26T07:52:32.898Z,73.77
2022-08-26T07:53:32.900Z,71.66
2022-08-26T07:54:32.879Z,70.67
2022-08-26T07:55:32.859Z,72.16
2022-08-26T07:56:32.859Z,70.84
2022-08-26T07:57:32.840Z,71.66
2022-08-26T07:58:32.818Z,71.66
2022-08-26T07:59:32.817Z,71.47
2022-08-26T08:00:32.807Z,71.53
2022-08-26T08:01:32.812Z,71.50
2022-08-26T08:02:32.771Z,70.80
2022-08-26T08:03:32.772Z,69.88
2022-08-26T08:04:32.757Z,69.26
2022-08-26T08:05:33.779Z,69.65
2022-08-26T08:06:32.739Z,69.16
2022-08-26T08:07:38.507Z,69.45
2022-08-26T08:08:33.687Z,68.04
2022-08-26T08:09:32.684Z,67.65
2022-08-26T08:10:32.680Z,68.37
2022-08-26T08:11:32.672Z,69.82
2022-08-26T08:12:32.642Z,71.37
2022-08-26T08:13:32.639Z,71.89
2022-08-26T08:14:32.639Z,73.58
2022-08-26T08:15:32.610Z,73.08
2022-08-26T08:16:33.319Z,73.24
2022-08-26T08:17:32.610Z,72.75
2022-08-26T08:18:32.563Z,73.11
2022-08-26T08:19:36.628Z,73.11
2022-08-26T08:20:33.565Z,71.92
2022-08-26T08:21:32.541Z,72.32
2022-08-26T08:22:32.520Z,71.33
2022-08-26T08:23:32.501Z,71.53
2022-08-26T08:24:32.491Z,70.34
2022-08-26T08:25:32.482Z,70.15
2022-08-26T08:26:32.486Z,71.26
2022-08-26T08:27:32.443Z,72.65
2022-08-26T08:28:32.438Z,71.33
2022-08-26T08:29:32.411Z,71.92
2022-08-26T08:30:32.452Z,72.09
2022-08-26T08:31:55.760Z,71.10
2022-08-26T08:32:33.382Z,71.73
2022-08-26T08:33:32.363Z,71.30
2022-08-26T08:34:32.409Z,72.49
2022-08-26T08:35:32.352Z,73.77
2022-08-26T08:36:36.273Z,73.87
2022-08-26T08:37:32.321Z,73.68
2022-08-26T08:38:32.311Z,72.78
2022-08-26T08:39:32.293Z,73.05
2022-08-26T08:40:32.347Z,73.83
2022-08-26T08:41:32.283Z,72.35
2022-08-26T08:42:32.303Z,73.05
2022-08-26T08:43:32.242Z,72.65
2022-08-26T08:44:33.263Z,72.75
2022-08-26T08:45:35.933Z,71.80
2022-08-26T08:46:32.240Z,73.38
2022-08-26T08:47:32.206Z,73.61
2022-08-26T08:48:32.180Z,74.04
2022-08-26T08:49:32.344Z,73.85
2022-08-26T08:50:32.155Z,74.87
2022-08-26T08:51:32.156Z,75.03
2022-08-26T08:52:32.124Z,74.93
2022-08-26T08:53:32.106Z,74.44
2022-08-26T08:54:32.105Z,73.98
2022-08-26T08:55:32.095Z,75.07
2022-08-26T08:56:32.076Z,74.97
2022-08-26T08:57:32.049Z,75.27
2022-08-26T08:58:32.045Z,74.18
2022-08-26T08:59:32.025Z,74.38
2022-08-26T09:00:32.653Z,75.92
2022-08-26T09:01:32.067Z,74.24
2022-08-26T09:02:32.077Z,74.74
2022-08-26T09:03:31.974Z,74.01
2022-08-26T09:04:31.966Z,73.08
2022-08-26T09:05:31.946Z,72.39
2022-08-26T09:06:31.946Z,72.61
2022-08-26T09:07:34.532Z,70.54
2022-08-26T09:08:31.917Z,71.50
2022-08-26T09:09:31.895Z,71.20
2022-08-26T09:10:31.888Z,70.01
2022-08-26T09:11:31.916Z,71.26
2022-08-26T09:12:31.857Z,70.41
2022-08-26T09:13:32.029Z,70.54
2022-08-26T09:14:31.828Z,70.97
2022-08-26T09:15:31.818Z,71.66
2022-08-26T09:16:31.885Z,71.86
2022-08-26T09:17:31.789Z,72.49
2022-08-26T09:18:31.778Z,72.59
2022-08-26T09:19:31.769Z,71.70
2022-08-26T09:20:31.747Z,72.35
2022-08-26T09:21:31.748Z,71.76
2022-08-26T09:22:31.729Z,72.06
2022-08-26T09:23:31.711Z,71.33
2022-08-26T09:24:31.699Z,71.73
2022-08-26T09:25:31.688Z,71.53
2022-08-26T09:26:31.680Z,70.94
2022-08-26T09:27:31.660Z,71.03
2022-08-26T09:28:31.654Z,71.14
2022-08-26T09:29:31.685Z,71.83
2022-08-26T09:30:31.672Z,71.43
2022-08-26T09:31:31.669Z,71.23
2022-08-26T09:32:31.640Z,71.73
2022-08-26T09:33:31.580Z,71.92
2022-08-26T09:34:31.560Z,71.53
2022-08-26T09:35:31.540Z,71.33
2022-08-26T09:36:32.382Z,71.43
2022-08-26T09:37:31.634Z,71.33
2022-08-26T09:38:31.510Z,71.62
2022-08-26T09:39:31.523Z,71.83
2022-08-26T09:40:34.836Z,71.92
2022-08-26T09:41:31.488Z,71.33
2022-08-26T09:42:31.472Z,71.83
2022-08-26T09:43:31.449Z,71.98
2022-08-26T09:44:31.436Z,71.79
2022-08-26T09:45:31.430Z,71.10
2022-08-26T09:46:31.542Z,70.70
2022-08-26T09:47:31.804Z,70.61
2022-08-26T09:48:31.409Z,71.00
2022-08-26T09:49:35.558Z,71.20
2022-08-26T09:50:31.354Z,71.39
2022-08-26T09:51:31.342Z,72.22
2022-08-26T09:52:31.347Z,72.81
2022-08-26T09:53:31.332Z,72.02
2022-08-26T09:54:32.337Z,73.31
2022-08-26T09:55:31.282Z,73.21
2022-08-26T09:56:31.296Z,72.12
2022-08-26T09:57:31.261Z,71.50
2022-08-26T09:58:31.284Z,72.19
2022-08-26T09:59:31.232Z,72.19
2022-08-26T10:00:31.222Z,72.55
2022-08-26T10:01:31.283Z,71.26
2022-08-26T10:02:31.193Z,71.36
2022-08-26T10:03:31.344Z,70.97
2022-08-26T10:04:31.217Z,71.06
2022-08-26T10:05:31.153Z,72.05
2022-08-26T10:06:31.155Z,69.59
2022-08-26T10:07:31.128Z,72.25
2022-08-26T10:08:31.117Z,71.16
2022-08-26T10:09:31.093Z,71.39
2022-08-26T10:10:31.084Z,71.79
2022-08-26T10:11:31.101Z,71.69
2022-08-26T10:12:31.065Z,71.89
2022-08-26T10:13:31.126Z,71.56
2022-08-26T10:14:31.037Z,71.00
2022-08-26T10:15:31.015Z,72.38
2022-08-26T10:16:31.061Z,71.39
2022-08-26T10:17:31.032Z,72.48
2022-08-26T10:18:34.234Z,71.30
2022-08-26T10:19:55.584Z,71.98
2022-08-26T10:20:31.968Z,71.50
2022-08-26T10:21:30.969Z,71.66
2022-08-26T10:22:30.936Z,70.57
2022-08-26T10:23:30.949Z,70.08
2022-08-26T10:24:30.905Z,69.88
2022-08-26T10:25:30.892Z,70.47
2022-08-26T10:26:30.887Z,71.36
2022-08-26T10:27:30.869Z,70.28
2022-08-26T10:28:30.947Z,70.57
2022-08-26T10:29:30.836Z,69.78
2022-08-26T10:30:30.823Z,69.38
2022-08-26T10:31:30.881Z,69.59
2022-08-26T10:32:31.861Z,68.46
2022-08-26T10:33:30.788Z,70.04
2022-08-26T10:34:30.774Z,69.26
2022-08-26T10:35:30.759Z,68.46
2022-08-26T10:36:30.910Z,68.37
2022-08-26T10:37:30.728Z,69.16
2022-08-26T10:38:30.726Z,68.86
2022-08-26T10:39:30.771Z,67.97
2022-08-26T10:40:30.759Z,69.06
2022-08-26T10:41:30.679Z,67.68
2022-08-26T10:42:30.679Z,68.57
2022-08-26T10:43:30.652Z,68.57
2022-08-26T10:44:30.641Z,67.28
2022-08-26T10:45:30.680Z,68.33
2022-08-26T10:46:30.620Z,67.44
2022-08-26T10:47:30.609Z,67.94
2022-08-26T10:48:35.192Z,66.96
2022-08-26T10:49:31.572Z,68.24
2022-08-26T10:50:30.565Z,68.33
2022-08-26T10:51:30.557Z,67.84
2022-08-26T10:52:30.578Z,68.13
2022-08-26T10:53:32.716Z,68.04
2022-08-26T10:54:30.525Z,68.04
2022-08-26T10:55:30.491Z,67.74
2022-08-26T10:56:30.497Z,67.65
2022-08-26T10:57:30.490Z,68.10
2022-08-26T10:58:30.464Z,68.30
2022-08-26T10:59:30.442Z,67.32
2022-08-26T11:00:31.397Z,67.12
2022-08-26T11:01:30.446Z,67.61
2022-08-26T11:02:30.437Z,66.82
2022-08-26T11:03:30.400Z,67.12
2022-08-26T11:04:30.426Z,66.53
2022-08-26T11:05:30.382Z,67.12
2022-08-26T11:06:30.552Z,67.32
2022-08-26T11:07:31.748Z,67.02
2022-08-26T11:08:30.384Z,66.92
2022-08-26T11:09:30.324Z,66.92
2022-08-26T11:10:30.393Z,67.71
2022-08-26T11:11:30.399Z,67.97
2022-08-26T11:12:30.384Z,67.97
2022-08-26T11:13:30.272Z,66.99
2022-08-26T11:14:33.023Z,66.89
2022-08-26T11:15:31.242Z,64.62
2022-08-26T11:16:30.301Z,64.72
2022-08-26T11:17:30.234Z,66.39
2022-08-26T11:18:30.205Z,66.89
2022-08-26T11:19:56.807Z,66.39
2022-08-26T11:20:31.185Z,66.39
2022-08-26T11:21:30.169Z,66.20
2022-08-26T11:22:30.165Z,65.22
2022-08-26T11:23:30.141Z,65.70
2022-08-26T11:24:30.136Z,66.69
2022-08-26T11:25:31.080Z,66.10
2022-08-26T11:26:37.821Z,66.43
2022-08-26T11:27:31.152Z,67.41
2022-08-26T11:28:30.085Z,66.33
2022-08-26T11:29:30.086Z,66.23
2022-08-26T11:30:30.070Z,65.94
2022-08-26T11:31:30.049Z,66.53
2022-08-26T11:32:30.048Z,66.03
2022-08-26T11:33:30.026Z,65.74
2022-08-26T11:34:37.511Z,65.54
2022-08-26T11:35:29.979Z,65.61
2022-08-26T11:36:37.496Z,66.10
2022-08-26T11:37:40.597Z,65.91
2022-08-26T11:38:29.954Z,66.10
2022-08-26T11:39:29.948Z,66.07
2022-08-26T11:40:30.004Z,65.70
2022-08-26T11:41:29.941Z,65.80
2022-08-26T11:42:29.910Z,65.91
2022-08-26T11:43:30.363Z,66.10
2022-08-26T11:44:29.872Z,68.07
2022-08-26T11:45:29.878Z,66.00
2022-08-26T11:46:29.849Z,67.71
2022-08-26T11:47:29.847Z,69.38
2022-08-26T11:48:29.822Z,66.82
2022-08-26T11:49:29.811Z,68.40
2022-08-26T11:50:29.801Z,67.81
2022-08-26T11:51:29.779Z,68.40
2022-08-26T11:52:29.794Z,67.94
2022-08-26T11:53:29.908Z,67.15
2022-08-26T11:54:35.595Z,66.56
2022-08-26T11:55:30.732Z,66.33
2022-08-26T11:56:31.603Z,65.94
2022-08-26T11:57:29.713Z,66.53
2022-08-26T11:58:29.694Z,66.13
2022-08-26T11:59:29.715Z,64.95
2022-08-26T12:00:33.509Z,65.54
2022-08-26T12:01:31.208Z,65.15
2022-08-26T12:02:29.656Z,65.84
2022-08-26T12:03:29.768Z,68.01
2022-08-26T12:04:29.694Z,67.77
2022-08-26T12:05:31.159Z,66.99
2022-08-26T12:06:29.598Z,66.56
2022-08-26T12:07:29.585Z,65.08
2022-08-26T12:08:29.694Z,65.18
2022-08-26T12:09:29.545Z,65.67
2022-08-26T12:10:29.654Z,66.76
2022-08-26T12:11:31.440Z,64.20
2022-08-26T12:12:34.065Z,64.29
2022-08-26T12:13:30.645Z,62.72
2022-08-26T12:14:29.486Z,63.31
2022-08-26T12:15:29.726Z,63.78
2022-08-26T12:16:29.613Z,67.22
2022-08-26T12:17:29.517Z,64.26
2022-08-26T12:18:30.148Z,63.45
2022-08-26T12:19:29.417Z,64.92
2022-08-26T12:20:29.417Z,63.35
2022-08-26T12:21:29.396Z,63.35
2022-08-26T12:22:30.398Z,61.05
2022-08-26T12:23:29.378Z,63.91
2022-08-26T12:24:29.370Z,62.93
2022-08-26T12:25:30.660Z,61.84
2022-08-26T12:26:30.337Z,62.37
2022-08-26T12:27:29.554Z,61.68
2022-08-26T12:28:29.307Z,62.56
2022-08-26T12:29:29.409Z,63.54
2022-08-26T12:30:29.290Z,60.99
2022-08-26T12:31:29.289Z,61.35
2022-08-26T12:32:29.268Z,59.75
2022-08-26T12:33:29.247Z,58.50
2022-08-26T12:34:29.236Z,58.01
2022-08-26T12:35:29.507Z,58.80
2022-08-26T12:36:29.207Z,57.39
2022-08-26T12:37:29.209Z,58.67
2022-08-26T12:38:29.170Z,59.62
2022-08-26T12:39:29.179Z,59.79
2022-08-26T12:40:29.250Z,59.10
2022-08-26T12:41:29.160Z,56.74
2022-08-26T12:42:29.140Z,55.96
2022-08-26T12:43:29.116Z,54.49
2022-08-26T12:44:29.165Z,54.39
2022-08-26T12:45:29.232Z,54.10
2022-08-26T12:46:29.081Z,54.02
2022-08-26T12:47:42.282Z,56.38
2022-08-26T12:48:30.050Z,55.99
2022-08-26T12:49:29.041Z,57.36
2022-08-26T12:50:29.021Z,56.97
2022-08-26T12:51:29.011Z,56.74
2022-08-26T12:52:29.021Z,55.30